sensor_id;sensor_type;location;lat;lon;timestamp;temperature;humidity
25046;DHT22;13044;49.304;12.840;2022-10-22T00:00:08;11.10;99.90
25046;DHT22;13044;49.304;12.840;2022-10-22T00:02:36;11.10;99.90
25046;DHT22;13044;49.304;12.840;2022-10-22T00:05:03;11.10;99.90
25046;DHT22;13044;49.304;12.840;2022-10-22T00:07:31;11.10;99.90
25046;DHT22;13044;49.304;12.840;2022-10-22T00:09:58;11.10;99.90
25046;DHT22;13044;49.304;12.840;2022-10-22T00:12:25;11.10;99.90
25046;DHT22;13044;49.304;12.840;2022-10-22T00:14:52;11.10;99.90
25046;DHT22;13044;49.304;12.840;2022-10-22T00:17:19;11.10;99.90
25046;DHT22;13044;49.304;12.840;2022-10-22T00:19:46;11.10;99.90
25046;DHT22;13044;49.304;12.840;2022-10-22T00:22:13;11.10;99.90
25046;DHT22;13044;49.304;12.840;2022-10-22T00:24:40;11.10;99.90
25046;DHT22;13044;49.304;12.840;2022-10-22T00:27:08;11.20;99.90
25046;DHT22;13044;49.304;12.840;2022-10-22T00:29:36;11.20;99.90
25046;DHT22;13044;49.304;12.840;2022-10-22T00:32:03;11.20;99.90
25046;DHT22;13044;49.304;12.840;2022-10-22T00:34:31;11.30;99.90
25046;DHT22;13044;49.304;12.840;2022-10-22T00:36:58;11.30;99.90
25046;DHT22;13044;49.304;12.840;2022-10-22T00:39:26;11.30;99.90
25046;DHT22;13044;49.304;12.840;2022-10-22T00:41:55;11.30;99.90
25046;DHT22;13044;49.304;12.840;2022-10-22T00:50:37;11.30;99.90
25046;DHT22;13044;49.304;12.840;2022-10-22T00:53:14;11.30;99.90
25046;DHT22;13044;49.304;12.840;2022-10-22T00:55:44;11.40;99.90
25046;DHT22;13044;49.304;12.840;2022-10-22T00:58:13;11.40;99.90
25046;DHT22;13044;49.304;12.840;2022-10-22T01:00:41;11.40;99.90
25046;DHT22;13044;49.304;12.840;2022-10-22T01:03:08;11.40;99.90
25046;DHT22;13044;49.304;12.840;2022-10-22T01:05:56;11.40;99.90
25046;DHT22;13044;49.304;12.840;2022-10-22T01:09:02;11.40;99.90
25046;DHT22;13044;49.304;12.840;2022-10-22T01:12:02;11.40;99.90
25046;DHT22;13044;49.304;12.840;2022-10-22T01:26:25;11.50;99.90
25046;DHT22;13044;49.304;12.840;2022-10-22T01:29:18;11.40;99.90
25046;DHT22;13044;49.304;12.840;2022-10-22T01:31:59;11.40;99.90
25046;DHT22;13044;49.304;12.840;2022-10-22T01:34:29;11.50;99.90
25046;DHT22;13044;49.304;12.840;2022-10-22T01:36:56;11.50;99.90
25046;DHT22;13044;49.304;12.840;2022-10-22T01:39:26;11.50;99.90
25046;DHT22;13044;49.304;12.840;2022-10-22T01:41:56;11.40;99.90
25046;DHT22;13044;49.304;12.840;2022-10-22T01:44:33;11.50;99.90
25046;DHT22;13044;49.304;12.840;2022-10-22T01:53:11;11.50;99.90
25046;DHT22;13044;49.304;12.840;2022-10-22T01:56:03;11.50;99.90
25046;DHT22;13044;49.304;12.840;2022-10-22T02:04:08;11.50;99.90
25046;DHT22;13044;49.304;12.840;2022-10-22T02:06:40;11.60;99.90
25046;DHT22;13044;49.304;12.840;2022-10-22T02:09:08;11.60;99.90
25046;DHT22;13044;49.304;12.840;2022-10-22T02:11:37;11.60;99.90
25046;DHT22;13044;49.304;12.840;2022-10-22T02:14:04;11.60;99.90
25046;DHT22;13044;49.304;12.840;2022-10-22T02:16:36;11.60;99.90
25046;DHT22;13044;49.304;12.840;2022-10-22T02:19:12;11.60;99.90
25046;DHT22;13044;49.304;12.840;2022-10-22T02:21:45;11.60;99.90
25046;DHT22;13044;49.304;12.840;2022-10-22T02:24:13;11.60;99.90
25046;DHT22;13044;49.304;12.840;2022-10-22T02:27:00;11.60;99.90
25046;DHT22;13044;49.304;12.840;2022-10-22T02:30:07;11.60;99.90
25046;DHT22;13044;49.304;12.840;2022-10-22T02:32:50;11.60;99.90
25046;DHT22;13044;49.304;12.840;2022-10-22T02:35:25;11.60;99.90
25046;DHT22;13044;49.304;12.840;2022-10-22T02:37:54;11.60;99.90
25046;DHT22;13044;49.304;12.840;2022-10-22T02:40:23;11.60;99.90
25046;DHT22;13044;49.304;12.840;2022-10-22T02:42:51;11.60;99.90
25046;DHT22;13044;49.304;12.840;2022-10-22T02:45:19;11.60;99.90
25046;DHT22;13044;49.304;12.840;2022-10-22T02:47:46;11.70;99.90
25046;DHT22;13044;49.304;12.840;2022-10-22T02:50:13;11.70;99.90
25046;DHT22;13044;49.304;12.840;2022-10-22T02:52:40;11.70;99.90
25046;DHT22;13044;49.304;12.840;2022-10-22T02:55:07;11.70;99.90
25046;DHT22;13044;49.304;12.840;2022-10-22T02:57:34;11.70;99.90
25046;DHT22;13044;49.304;12.840;2022-10-22T03:00:02;11.70;99.90
25046;DHT22;13044;49.304;12.840;2022-10-22T03:02:30;11.70;99.90
25046;DHT22;13044;49.304;12.840;2022-10-22T03:04:57;11.70;99.90
25046;DHT22;13044;49.304;12.840;2022-10-22T03:07:24;11.80;99.90
25046;DHT22;13044;49.304;12.840;2022-10-22T03:09:51;11.80;99.90
25046;DHT22;13044;49.304;12.840;2022-10-22T03:12:17;11.90;99.90
25046;DHT22;13044;49.304;12.840;2022-10-22T03:14:44;11.90;99.90
25046;DHT22;13044;49.304;12.840;2022-10-22T03:17:11;11.80;99.90
25046;DHT22;13044;49.304;12.840;2022-10-22T03:19:38;11.80;99.90
25046;DHT22;13044;49.304;12.840;2022-10-22T03:22:08;11.80;99.90
25046;DHT22;13044;49.304;12.840;2022-10-22T03:24:40;11.80;99.90
25046;DHT22;13044;49.304;12.840;2022-10-22T03:27:11;11.80;99.90
25046;DHT22;13044;49.304;12.840;2022-10-22T03:29:40;11.80;99.90
25046;DHT22;13044;49.304;12.840;2022-10-22T03:32:08;11.80;99.90
25046;DHT22;13044;49.304;12.840;2022-10-22T03:34:35;11.80;99.90
25046;DHT22;13044;49.304;12.840;2022-10-22T03:37:01;11.80;99.90
25046;DHT22;13044;49.304;12.840;2022-10-22T03:39:30;11.80;99.90
25046;DHT22;13044;49.304;12.840;2022-10-22T03:41:57;11.80;99.90
25046;DHT22;13044;49.304;12.840;2022-10-22T03:44:25;11.80;99.90
25046;DHT22;13044;49.304;12.840;2022-10-22T03:46:53;11.80;99.90
25046;DHT22;13044;49.304;12.840;2022-10-22T03:49:25;11.80;99.90
25046;DHT22;13044;49.304;12.840;2022-10-22T03:51:52;11.90;99.90
25046;DHT22;13044;49.304;12.840;2022-10-22T03:54:19;11.80;99.90
25046;DHT22;13044;49.304;12.840;2022-10-22T03:56:46;11.80;99.90
25046;DHT22;13044;49.304;12.840;2022-10-22T03:59:12;11.90;99.90
25046;DHT22;13044;49.304;12.840;2022-10-22T04:01:40;11.90;99.90
25046;DHT22;13044;49.304;12.840;2022-10-22T04:04:07;11.90;99.90
25046;DHT22;13044;49.304;12.840;2022-10-22T04:06:34;11.90;99.90
25046;DHT22;13044;49.304;12.840;2022-10-22T04:09:00;11.90;99.90
25046;DHT22;13044;49.304;12.840;2022-10-22T04:11:28;11.80;99.90
25046;DHT22;13044;49.304;12.840;2022-10-22T04:13:54;11.80;99.90
25046;DHT22;13044;49.304;12.840;2022-10-22T04:16:22;11.80;99.90
25046;DHT22;13044;49.304;12.840;2022-10-22T04:18:53;11.80;99.90
25046;DHT22;13044;49.304;12.840;2022-10-22T04:21:20;11.80;99.90
25046;DHT22;13044;49.304;12.840;2022-10-22T04:23:51;11.80;99.90
25046;DHT22;13044;49.304;12.840;2022-10-22T04:26:19;11.80;99.90
25046;DHT22;13044;49.304;12.840;2022-10-22T04:28:47;11.80;99.90
25046;DHT22;13044;49.304;12.840;2022-10-22T04:31:18;11.80;99.90
25046;DHT22;13044;49.304;12.840;2022-10-22T04:33:46;11.80;99.90
25046;DHT22;13044;49.304;12.840;2022-10-22T04:36:15;11.80;99.90
25046;DHT22;13044;49.304;12.840;2022-10-22T04:38:45;11.80;99.90
25046;DHT22;13044;49.304;12.840;2022-10-22T04:41:17;11.80;99.90
25046;DHT22;13044;49.304;12.840;2022-10-22T04:43:45;11.80;99.90
25046;DHT22;13044;49.304;12.840;2022-10-22T04:46:15;11.80;99.90
25046;DHT22;13044;49.304;12.840;2022-10-22T04:48:44;11.90;99.90
25046;DHT22;13044;49.304;12.840;2022-10-22T04:51:14;11.90;99.90
25046;DHT22;13044;49.304;12.840;2022-10-22T04:53:43;11.90;99.90
25046;DHT22;13044;49.304;12.840;2022-10-22T04:56:12;11.90;99.90
25046;DHT22;13044;49.304;12.840;2022-10-22T04:58:55;11.90;99.90
25046;DHT22;13044;49.304;12.840;2022-10-22T05:01:28;11.90;99.90
25046;DHT22;13044;49.304;12.840;2022-10-22T05:03:59;11.90;99.90
25046;DHT22;13044;49.304;12.840;2022-10-22T05:06:29;11.90;99.90
25046;DHT22;13044;49.304;12.840;2022-10-22T05:08:59;11.90;99.90
25046;DHT22;13044;49.304;12.840;2022-10-22T05:11:30;12.00;99.90
25046;DHT22;13044;49.304;12.840;2022-10-22T05:14:01;12.00;99.90
25046;DHT22;13044;49.304;12.840;2022-10-22T05:16:29;12.00;99.90
25046;DHT22;13044;49.304;12.840;2022-10-22T05:18:58;12.00;99.90
25046;DHT22;13044;49.304;12.840;2022-10-22T05:21:27;12.00;99.90
25046;DHT22;13044;49.304;12.840;2022-10-22T05:23:54;12.00;99.90
25046;DHT22;13044;49.304;12.840;2022-10-22T05:26:22;12.00;99.90
25046;DHT22;13044;49.304;12.840;2022-10-22T05:28:50;12.00;99.90
25046;DHT22;13044;49.304;12.840;2022-10-22T05:31:18;12.00;99.90
25046;DHT22;13044;49.304;12.840;2022-10-22T05:33:46;12.00;99.90
25046;DHT22;13044;49.304;12.840;2022-10-22T05:36:16;12.00;99.90
25046;DHT22;13044;49.304;12.840;2022-10-22T05:38:46;12.00;99.90
25046;DHT22;13044;49.304;12.840;2022-10-22T05:41:19;12.10;99.90
25046;DHT22;13044;49.304;12.840;2022-10-22T05:43:48;12.10;99.90
25046;DHT22;13044;49.304;12.840;2022-10-22T05:46:17;12.10;99.90
25046;DHT22;13044;49.304;12.840;2022-10-22T05:48:52;12.10;99.90
25046;DHT22;13044;49.304;12.840;2022-10-22T05:51:21;12.10;99.90
25046;DHT22;13044;49.304;12.840;2022-10-22T05:53:51;12.10;99.90
25046;DHT22;13044;49.304;12.840;2022-10-22T05:56:20;12.10;99.90
25046;DHT22;13044;49.304;12.840;2022-10-22T05:58:48;12.10;99.90
25046;DHT22;13044;49.304;12.840;2022-10-22T06:01:18;12.10;99.90
25046;DHT22;13044;49.304;12.840;2022-10-22T06:03:47;12.10;99.90
25046;DHT22;13044;49.304;12.840;2022-10-22T06:06:21;12.10;99.90
25046;DHT22;13044;49.304;12.840;2022-10-22T06:08:53;12.10;99.90
25046;DHT22;13044;49.304;12.840;2022-10-22T06:11:21;12.10;99.90
25046;DHT22;13044;49.304;12.840;2022-10-22T06:13:49;12.10;99.90
25046;DHT22;13044;49.304;12.840;2022-10-22T06:16:16;12.20;99.90
25046;DHT22;13044;49.304;12.840;2022-10-22T06:18:43;12.20;99.90
25046;DHT22;13044;49.304;12.840;2022-10-22T06:21:13;12.20;99.90
25046;DHT22;13044;49.304;12.840;2022-10-22T06:23:41;12.20;99.90
25046;DHT22;13044;49.304;12.840;2022-10-22T06:26:09;12.20;99.90
25046;DHT22;13044;49.304;12.840;2022-10-22T06:28:36;12.30;99.90
25046;DHT22;13044;49.304;12.840;2022-10-22T06:31:04;12.30;99.90
25046;DHT22;13044;49.304;12.840;2022-10-22T06:33:32;12.30;99.90
25046;DHT22;13044;49.304;12.840;2022-10-22T06:36:10;12.30;99.90
25046;DHT22;13044;49.304;12.840;2022-10-22T06:38:38;12.30;99.90
25046;DHT22;13044;49.304;12.840;2022-10-22T06:41:08;12.30;99.90
25046;DHT22;13044;49.304;12.840;2022-10-22T06:43:36;12.30;99.90
25046;DHT22;13044;49.304;12.840;2022-10-22T06:46:08;12.30;99.90
25046;DHT22;13044;49.304;12.840;2022-10-22T06:48:47;12.30;99.90
25046;DHT22;13044;49.304;12.840;2022-10-22T06:51:18;12.30;99.90
25046;DHT22;13044;49.304;12.840;2022-10-22T06:53:47;12.30;99.90
25046;DHT22;13044;49.304;12.840;2022-10-22T06:56:19;12.30;99.90
25046;DHT22;13044;49.304;12.840;2022-10-22T06:58:48;12.30;99.90
25046;DHT22;13044;49.304;12.840;2022-10-22T07:01:18;12.30;99.90
25046;DHT22;13044;49.304;12.840;2022-10-22T07:03:46;12.30;99.90
25046;DHT22;13044;49.304;12.840;2022-10-22T07:06:15;12.40;99.90
25046;DHT22;13044;49.304;12.840;2022-10-22T07:08:43;12.40;99.90
25046;DHT22;13044;49.304;12.840;2022-10-22T07:11:15;12.40;99.90
25046;DHT22;13044;49.304;12.840;2022-10-22T07:13:50;12.40;99.90
25046;DHT22;13044;49.304;12.840;2022-10-22T07:16:17;12.50;99.90
25046;DHT22;13044;49.304;12.840;2022-10-22T07:18:45;12.40;99.90
25046;DHT22;13044;49.304;12.840;2022-10-22T07:21:15;12.50;99.90
25046;DHT22;13044;49.304;12.840;2022-10-22T07:23:43;12.50;99.90
25046;DHT22;13044;49.304;12.840;2022-10-22T07:26:13;12.50;99.90
25046;DHT22;13044;49.304;12.840;2022-10-22T07:28:42;12.50;99.90
25046;DHT22;13044;49.304;12.840;2022-10-22T07:31:10;12.50;99.90
25046;DHT22;13044;49.304;12.840;2022-10-22T07:33:39;12.60;99.90
25046;DHT22;13044;49.304;12.840;2022-10-22T07:36:09;12.60;99.90
25046;DHT22;13044;49.304;12.840;2022-10-22T07:38:37;12.60;99.90
25046;DHT22;13044;49.304;12.840;2022-10-22T07:41:04;12.60;99.90
25046;DHT22;13044;49.304;12.840;2022-10-22T07:43:31;12.60;99.90
25046;DHT22;13044;49.304;12.840;2022-10-22T07:45:58;12.60;99.90
25046;DHT22;13044;49.304;12.840;2022-10-22T07:48:26;12.60;99.90
25046;DHT22;13044;49.304;12.840;2022-10-22T07:50:52;12.60;99.90
25046;DHT22;13044;49.304;12.840;2022-10-22T07:53:20;12.60;99.90
25046;DHT22;13044;49.304;12.840;2022-10-22T07:55:48;12.60;99.90
25046;DHT22;13044;49.304;12.840;2022-10-22T07:58:20;12.60;99.90
25046;DHT22;13044;49.304;12.840;2022-10-22T08:00:47;12.60;99.90
25046;DHT22;13044;49.304;12.840;2022-10-22T08:03:15;12.70;99.90
25046;DHT22;13044;49.304;12.840;2022-10-22T08:05:43;12.80;99.90
25046;DHT22;13044;49.304;12.840;2022-10-22T08:08:12;12.90;99.90
25046;DHT22;13044;49.304;12.840;2022-10-22T08:10:39;13.00;99.90
25046;DHT22;13044;49.304;12.840;2022-10-22T08:13:06;13.00;99.90
25046;DHT22;13044;49.304;12.840;2022-10-22T08:15:34;13.10;99.90
25046;DHT22;13044;49.304;12.840;2022-10-22T08:18:01;13.10;99.90
25046;DHT22;13044;49.304;12.840;2022-10-22T08:20:28;13.20;99.90
25046;DHT22;13044;49.304;12.840;2022-10-22T08:22:54;13.20;99.90
25046;DHT22;13044;49.304;12.840;2022-10-22T08:25:21;13.30;99.90
25046;DHT22;13044;49.304;12.840;2022-10-22T08:27:49;13.40;99.90
25046;DHT22;13044;49.304;12.840;2022-10-22T08:30:16;13.50;99.90
25046;DHT22;13044;49.304;12.840;2022-10-22T08:32:43;13.50;99.90
25046;DHT22;13044;49.304;12.840;2022-10-22T08:35:10;13.50;99.90
25046;DHT22;13044;49.304;12.840;2022-10-22T08:37:42;13.50;99.90
25046;DHT22;13044;49.304;12.840;2022-10-22T08:40:20;13.50;99.90
25046;DHT22;13044;49.304;12.840;2022-10-22T08:49:25;13.60;99.90
25046;DHT22;13044;49.304;12.840;2022-10-22T08:51:55;13.70;99.90
25046;DHT22;13044;49.304;12.840;2022-10-22T08:54:36;13.80;99.90
25046;DHT22;13044;49.304;12.840;2022-10-22T09:05:48;13.90;99.90
25046;DHT22;13044;49.304;12.840;2022-10-22T09:08:22;14.00;99.90
25046;DHT22;13044;49.304;12.840;2022-10-22T09:11:02;14.00;99.90
25046;DHT22;13044;49.304;12.840;2022-10-22T09:13:34;14.00;99.90
25046;DHT22;13044;49.304;12.840;2022-10-22T09:16:17;14.00;99.90
25046;DHT22;13044;49.304;12.840;2022-10-22T09:19:28;13.90;99.90
25046;DHT22;13044;49.304;12.840;2022-10-22T09:22:21;13.90;99.90
25046;DHT22;13044;49.304;12.840;2022-10-22T09:27:46;14.00;99.90
25046;DHT22;13044;49.304;12.840;2022-10-22T09:30:20;14.00;99.90
25046;DHT22;13044;49.304;12.840;2022-10-22T09:35:57;14.00;99.90
25046;DHT22;13044;49.304;12.840;2022-10-22T09:38:38;14.10;99.90
25046;DHT22;13044;49.304;12.840;2022-10-22T09:41:07;14.10;99.90
25046;DHT22;13044;49.304;12.840;2022-10-22T09:43:34;14.10;99.90
25046;DHT22;13044;49.304;12.840;2022-10-22T09:46:07;14.10;99.90
25046;DHT22;13044;49.304;12.840;2022-10-22T09:49:02;14.20;99.90
25046;DHT22;13044;49.304;12.840;2022-10-22T09:54:18;14.20;99.90
25046;DHT22;13044;49.304;12.840;2022-10-22T09:57:16;14.30;99.90
25046;DHT22;13044;49.304;12.840;2022-10-22T09:59:49;14.30;99.90
25046;DHT22;13044;49.304;12.840;2022-10-22T10:02:21;14.40;99.90
25046;DHT22;13044;49.304;12.840;2022-10-22T10:05:05;14.30;99.90
25046;DHT22;13044;49.304;12.840;2022-10-22T10:07:34;14.40;99.90
25046;DHT22;13044;49.304;12.840;2022-10-22T10:10:25;14.30;99.90
25046;DHT22;13044;49.304;12.840;2022-10-22T10:15:55;14.40;99.90
25046;DHT22;13044;49.304;12.840;2022-10-22T10:18:49;14.40;99.90
25046;DHT22;13044;49.304;12.840;2022-10-22T10:27:42;14.40;99.90
25046;DHT22;13044;49.304;12.840;2022-10-22T10:30:21;14.50;99.90
25046;DHT22;13044;49.304;12.840;2022-10-22T10:33:18;14.60;99.90
25046;DHT22;13044;49.304;12.840;2022-10-22T10:39:50;14.70;99.90
25046;DHT22;13044;49.304;12.840;2022-10-22T10:45:06;14.80;99.90
25046;DHT22;13044;49.304;12.840;2022-10-22T10:50:49;14.80;99.90
25046;DHT22;13044;49.304;12.840;2022-10-22T10:56:43;14.90;99.90
25046;DHT22;13044;49.304;12.840;2022-10-22T10:59:22;15.00;99.90
25046;DHT22;13044;49.304;12.840;2022-10-22T11:05:12;14.90;99.90
25046;DHT22;13044;49.304;12.840;2022-10-22T11:08:31;14.90;99.90
25046;DHT22;13044;49.304;12.840;2022-10-22T11:11:02;14.80;99.90
25046;DHT22;13044;49.304;12.840;2022-10-22T11:13:48;14.70;99.90
25046;DHT22;13044;49.304;12.840;2022-10-22T11:16:28;14.70;99.90
25046;DHT22;13044;49.304;12.840;2022-10-22T11:28:03;14.70;99.90
25046;DHT22;13044;49.304;12.840;2022-10-22T11:30:48;14.80;99.90
25046;DHT22;13044;49.304;12.840;2022-10-22T11:33:23;14.80;99.90
25046;DHT22;13044;49.304;12.840;2022-10-22T11:35:56;14.90;99.90
25046;DHT22;13044;49.304;12.840;2022-10-22T11:38:25;14.90;99.90
25046;DHT22;13044;49.304;12.840;2022-10-22T11:41:12;14.80;99.90
25046;DHT22;13044;49.304;12.840;2022-10-22T11:49:26;14.80;99.90
25046;DHT22;13044;49.304;12.840;2022-10-22T11:55:01;14.80;99.90
25046;DHT22;13044;49.304;12.840;2022-10-22T11:57:38;14.80;99.90
25046;DHT22;13044;49.304;12.840;2022-10-22T12:03:04;14.90;99.90
25046;DHT22;13044;49.304;12.840;2022-10-22T12:05:44;14.90;99.90
25046;DHT22;13044;49.304;12.840;2022-10-22T12:08:22;14.90;99.90
25046;DHT22;13044;49.304;12.840;2022-10-22T12:11:10;14.90;99.90
25046;DHT22;13044;49.304;12.840;2022-10-22T12:21:53;15.00;99.90
25046;DHT22;13044;49.304;12.840;2022-10-22T12:24:24;15.00;99.90
25046;DHT22;13044;49.304;12.840;2022-10-22T12:26:54;14.80;99.90
25046;DHT22;13044;49.304;12.840;2022-10-22T12:29:21;14.70;99.90
25046;DHT22;13044;49.304;12.840;2022-10-22T12:31:49;14.70;99.90
25046;DHT22;13044;49.304;12.840;2022-10-22T12:34:21;14.70;99.90
25046;DHT22;13044;49.304;12.840;2022-10-22T12:36:52;14.80;99.90
25046;DHT22;13044;49.304;12.840;2022-10-22T12:39:23;14.80;99.90
25046;DHT22;13044;49.304;12.840;2022-10-22T12:41:53;14.90;99.90
25046;DHT22;13044;49.304;12.840;2022-10-22T12:44:20;14.90;99.90
25046;DHT22;13044;49.304;12.840;2022-10-22T12:46:48;15.00;99.90
25046;DHT22;13044;49.304;12.840;2022-10-22T12:49:30;15.10;99.90
25046;DHT22;13044;49.304;12.840;2022-10-22T12:52:06;15.10;99.90
25046;DHT22;13044;49.304;12.840;2022-10-22T12:54:39;15.20;99.90
25046;DHT22;13044;49.304;12.840;2022-10-22T12:57:11;15.20;99.90
25046;DHT22;13044;49.304;12.840;2022-10-22T12:59:41;15.30;99.90
25046;DHT22;13044;49.304;12.840;2022-10-22T13:08:00;15.40;99.90
25046;DHT22;13044;49.304;12.840;2022-10-22T13:10:36;15.40;99.90
25046;DHT22;13044;49.304;12.840;2022-10-22T13:13:27;15.50;99.90
25046;DHT22;13044;49.304;12.840;2022-10-22T13:18:51;15.50;99.90
25046;DHT22;13044;49.304;12.840;2022-10-22T13:24:21;15.60;99.90
25046;DHT22;13044;49.304;12.840;2022-10-22T13:26:51;15.50;99.90
25046;DHT22;13044;49.304;12.840;2022-10-22T13:29:20;15.50;99.90
25046;DHT22;13044;49.304;12.840;2022-10-22T13:31:50;15.60;99.90
25046;DHT22;13044;49.304;12.840;2022-10-22T13:34:23;15.60;99.90
25046;DHT22;13044;49.304;12.840;2022-10-22T13:36:51;15.70;99.90
25046;DHT22;13044;49.304;12.840;2022-10-22T13:39:23;15.80;99.90
25046;DHT22;13044;49.304;12.840;2022-10-22T13:41:50;16.00;99.90
25046;DHT22;13044;49.304;12.840;2022-10-22T13:44:18;16.10;99.90
25046;DHT22;13044;49.304;12.840;2022-10-22T13:46:46;16.00;99.90
25046;DHT22;13044;49.304;12.840;2022-10-22T13:49:20;16.00;99.90
25046;DHT22;13044;49.304;12.840;2022-10-22T13:51:50;16.00;99.90
25046;DHT22;13044;49.304;12.840;2022-10-22T13:54:22;15.90;99.90
25046;DHT22;13044;49.304;12.840;2022-10-22T13:56:50;15.90;99.90
25046;DHT22;13044;49.304;12.840;2022-10-22T13:59:18;15.80;99.90
25046;DHT22;13044;49.304;12.840;2022-10-22T14:01:49;15.80;99.90
25046;DHT22;13044;49.304;12.840;2022-10-22T14:04:16;15.70;99.90
25046;DHT22;13044;49.304;12.840;2022-10-22T14:06:43;15.70;99.90
25046;DHT22;13044;49.304;12.840;2022-10-22T14:09:14;15.80;99.90
25046;DHT22;13044;49.304;12.840;2022-10-22T14:11:41;15.70;99.90
25046;DHT22;13044;49.304;12.840;2022-10-22T14:14:08;15.70;99.90
25046;DHT22;13044;49.304;12.840;2022-10-22T14:16:39;15.70;99.90
25046;DHT22;13044;49.304;12.840;2022-10-22T14:19:06;15.80;99.90
25046;DHT22;13044;49.304;12.840;2022-10-22T14:21:39;15.70;99.90
25046;DHT22;13044;49.304;12.840;2022-10-22T14:24:08;15.70;99.90
25046;DHT22;13044;49.304;12.840;2022-10-22T14:26:38;15.70;99.90
25046;DHT22;13044;49.304;12.840;2022-10-22T14:29:05;15.60;99.90
25046;DHT22;13044;49.304;12.840;2022-10-22T14:31:39;15.60;99.90
25046;DHT22;13044;49.304;12.840;2022-10-22T14:34:13;15.50;99.90
25046;DHT22;13044;49.304;12.840;2022-10-22T14:36:41;15.40;99.90
25046;DHT22;13044;49.304;12.840;2022-10-22T14:39:11;15.40;99.90
25046;DHT22;13044;49.304;12.840;2022-10-22T14:41:39;15.30;99.90
25046;DHT22;13044;49.304;12.840;2022-10-22T14:44:08;15.40;99.90
25046;DHT22;13044;49.304;12.840;2022-10-22T14:46:38;15.40;99.90
25046;DHT22;13044;49.304;12.840;2022-10-22T14:49:07;15.40;99.90
25046;DHT22;13044;49.304;12.840;2022-10-22T14:51:34;15.30;99.90
25046;DHT22;13044;49.304;12.840;2022-10-22T14:54:01;15.20;99.90
25046;DHT22;13044;49.304;12.840;2022-10-22T14:56:27;15.10;99.90
25046;DHT22;13044;49.304;12.840;2022-10-22T14:58:54;15.00;99.90
25046;DHT22;13044;49.304;12.840;2022-10-22T15:01:21;15.00;99.90
25046;DHT22;13044;49.304;12.840;2022-10-22T15:03:48;14.90;99.90
25046;DHT22;13044;49.304;12.840;2022-10-22T15:06:15;14.90;99.90
25046;DHT22;13044;49.304;12.840;2022-10-22T15:08:43;14.80;99.90
25046;DHT22;13044;49.304;12.840;2022-10-22T15:11:11;14.80;99.90
25046;DHT22;13044;49.304;12.840;2022-10-22T15:13:39;14.70;99.90
25046;DHT22;13044;49.304;12.840;2022-10-22T15:16:09;14.70;99.90
25046;DHT22;13044;49.304;12.840;2022-10-22T15:18:36;14.60;99.90
25046;DHT22;13044;49.304;12.840;2022-10-22T15:21:06;14.50;99.90
25046;DHT22;13044;49.304;12.840;2022-10-22T15:23:37;14.50;99.90
25046;DHT22;13044;49.304;12.840;2022-10-22T15:26:09;14.40;99.90
25046;DHT22;13044;49.304;12.840;2022-10-22T15:28:37;14.40;99.90
25046;DHT22;13044;49.304;12.840;2022-10-22T15:31:06;14.40;99.90
25046;DHT22;13044;49.304;12.840;2022-10-22T15:33:33;14.40;99.90
25046;DHT22;13044;49.304;12.840;2022-10-22T15:36:09;14.30;99.90
25046;DHT22;13044;49.304;12.840;2022-10-22T15:38:38;14.30;99.90
25046;DHT22;13044;49.304;12.840;2022-10-22T15:41:06;14.20;99.90
25046;DHT22;13044;49.304;12.840;2022-10-22T15:43:35;14.20;99.90
25046;DHT22;13044;49.304;12.840;2022-10-22T15:46:16;14.20;99.90
25046;DHT22;13044;49.304;12.840;2022-10-22T15:48:44;14.10;99.90
25046;DHT22;13044;49.304;12.840;2022-10-22T15:51:13;14.10;99.90
25046;DHT22;13044;49.304;12.840;2022-10-22T15:53:42;14.00;99.90
25046;DHT22;13044;49.304;12.840;2022-10-22T15:56:10;14.00;99.90
25046;DHT22;13044;49.304;12.840;2022-10-22T15:58:37;14.00;99.90
25046;DHT22;13044;49.304;12.840;2022-10-22T16:01:09;13.90;99.90
25046;DHT22;13044;49.304;12.840;2022-10-22T16:03:39;13.80;99.90
25046;DHT22;13044;49.304;12.840;2022-10-22T16:06:07;13.70;99.90
25046;DHT22;13044;49.304;12.840;2022-10-22T16:08:35;13.70;99.90
25046;DHT22;13044;49.304;12.840;2022-10-22T16:11:03;13.60;99.90
25046;DHT22;13044;49.304;12.840;2022-10-22T16:13:31;13.60;99.90
25046;DHT22;13044;49.304;12.840;2022-10-22T16:16:04;13.50;99.90
25046;DHT22;13044;49.304;12.840;2022-10-22T16:18:32;13.40;99.90
25046;DHT22;13044;49.304;12.840;2022-10-22T16:20:59;13.40;99.90
25046;DHT22;13044;49.304;12.840;2022-10-22T16:23:26;13.30;99.90
25046;DHT22;13044;49.304;12.840;2022-10-22T16:25:53;13.30;99.90
25046;DHT22;13044;49.304;12.840;2022-10-22T16:28:20;13.20;99.90
25046;DHT22;13044;49.304;12.840;2022-10-22T16:30:47;13.20;99.90
25046;DHT22;13044;49.304;12.840;2022-10-22T16:33:14;13.10;99.90
25046;DHT22;13044;49.304;12.840;2022-10-22T16:35:41;13.10;99.90
25046;DHT22;13044;49.304;12.840;2022-10-22T16:38:09;13.10;99.90
25046;DHT22;13044;49.304;12.840;2022-10-22T16:40:37;13.00;99.90
25046;DHT22;13044;49.304;12.840;2022-10-22T16:43:05;13.00;99.90
25046;DHT22;13044;49.304;12.840;2022-10-22T16:45:31;13.00;99.90
25046;DHT22;13044;49.304;12.840;2022-10-22T16:47:58;13.00;99.90
25046;DHT22;13044;49.304;12.840;2022-10-22T16:50:26;12.90;99.90
25046;DHT22;13044;49.304;12.840;2022-10-22T16:52:53;12.90;99.90
25046;DHT22;13044;49.304;12.840;2022-10-22T16:55:20;12.90;99.90
25046;DHT22;13044;49.304;12.840;2022-10-22T16:57:50;12.80;99.90
25046;DHT22;13044;49.304;12.840;2022-10-22T17:00:19;12.80;99.90
25046;DHT22;13044;49.304;12.840;2022-10-22T17:02:51;12.80;99.90
25046;DHT22;13044;49.304;12.840;2022-10-22T17:05:19;12.70;99.90
25046;DHT22;13044;49.304;12.840;2022-10-22T17:07:46;12.70;99.90
25046;DHT22;13044;49.304;12.840;2022-10-22T17:10:14;12.70;99.90
25046;DHT22;13044;49.304;12.840;2022-10-22T17:12:41;12.70;99.90
25046;DHT22;13044;49.304;12.840;2022-10-22T17:15:09;12.60;99.90
25046;DHT22;13044;49.304;12.840;2022-10-22T17:17:36;12.60;99.90
25046;DHT22;13044;49.304;12.840;2022-10-22T17:20:04;12.60;99.90
25046;DHT22;13044;49.304;12.840;2022-10-22T17:22:32;12.50;99.90
25046;DHT22;13044;49.304;12.840;2022-10-22T17:25:14;12.50;99.90
25046;DHT22;13044;49.304;12.840;2022-10-22T17:27:44;12.50;99.90
25046;DHT22;13044;49.304;12.840;2022-10-22T17:30:15;12.40;99.90
25046;DHT22;13044;49.304;12.840;2022-10-22T17:32:48;12.40;99.90
25046;DHT22;13044;49.304;12.840;2022-10-22T17:35:15;12.40;99.90
25046;DHT22;13044;49.304;12.840;2022-10-22T17:37:43;12.40;99.90